sensor_id;sensor_type;location;lat;lon;timestamp;pressure;altitude;pressure_sealevel;temperature;humidity
49044;BME280;34860;48.066;14.124;2022-10-16T00:00:14;96722.97;;;13.53;75.95
49044;BME280;34860;48.066;14.124;2022-10-16T00:03:04;96712.13;;;13.55;76.11
49044;BME280;34860;48.066;14.124;2022-10-16T00:05:53;96711.22;;;13.58;76.01
49044;BME280;34860;48.066;14.124;2022-10-16T00:08:47;96715.22;;;13.57;76.05
49044;BME280;34860;48.066;14.124;2022-10-16T00:11:39;96710.00;;;13.59;75.98
49044;BME280;34860;48.066;14.124;2022-10-16T00:14:28;96707.97;;;13.60;76.03
49044;BME280;34860;48.066;14.124;2022-10-16T00:17:17;96714.53;;;13.66;76.03
49044;BME280;34860;48.066;14.124;2022-10-16T00:20:07;96706.00;;;13.70;75.87
49044;BME280;34860;48.066;14.124;2022-10-16T00:22:56;96722.63;;;13.73;76.12
49044;BME280;34860;48.066;14.124;2022-10-16T00:25:44;96716.56;;;13.75;75.72
49044;BME280;34860;48.066;14.124;2022-10-16T00:28:35;96717.53;;;13.81;75.69
49044;BME280;34860;48.066;14.124;2022-10-16T00:31:25;96729.38;;;13.85;75.66
49044;BME280;34860;48.066;14.124;2022-10-16T00:34:14;96722.88;;;13.88;75.95
49044;BME280;34860;48.066;14.124;2022-10-16T00:37:03;96726.75;;;13.91;75.72
49044;BME280;34860;48.066;14.124;2022-10-16T00:39:51;96728.63;;;13.94;75.71
49044;BME280;34860;48.066;14.124;2022-10-16T00:42:40;96729.22;;;13.89;75.76
49044;BME280;34860;48.066;14.124;2022-10-16T00:45:30;96722.22;;;13.84;76.02
49044;BME280;34860;48.066;14.124;2022-10-16T00:48:19;96724.50;;;13.76;76.03
49044;BME280;34860;48.066;14.124;2022-10-16T00:51:08;96725.53;;;13.70;75.94
49044;BME280;34860;48.066;14.124;2022-10-16T00:53:57;96725.22;;;13.68;76.03
49044;BME280;34860;48.066;14.124;2022-10-16T00:56:47;96725.22;;;13.68;76.14
49044;BME280;34860;48.066;14.124;2022-10-16T00:59:38;96727.69;;;13.66;76.07
49044;BME280;34860;48.066;14.124;2022-10-16T01:02:30;96734.06;;;13.66;76.05
49044;BME280;34860;48.066;14.124;2022-10-16T01:05:19;96739.31;;;13.64;76.31
49044;BME280;34860;48.066;14.124;2022-10-16T01:08:12;96741.94;;;13.58;76.40
49044;BME280;34860;48.066;14.124;2022-10-16T01:11:11;96740.81;;;13.56;76.49
49044;BME280;34860;48.066;14.124;2022-10-16T01:14:11;96745.31;;;13.53;76.68
49044;BME280;34860;48.066;14.124;2022-10-16T01:17:06;96738.63;;;13.51;76.81
49044;BME280;34860;48.066;14.124;2022-10-16T01:20:05;96744.03;;;13.45;77.04
49044;BME280;34860;48.066;14.124;2022-10-16T01:23:05;96740.78;;;13.47;77.09
49044;BME280;34860;48.066;14.124;2022-10-16T01:26:11;96741.53;;;13.47;77.03
49044;BME280;34860;48.066;14.124;2022-10-16T01:29:06;96733.03;;;13.51;76.86
49044;BME280;34860;48.066;14.124;2022-10-16T01:32:00;96730.91;;;13.55;76.54
49044;BME280;34860;48.066;14.124;2022-10-16T01:34:53;96740.81;;;13.56;76.46
49044;BME280;34860;48.066;14.124;2022-10-16T01:37:47;96738.38;;;13.58;76.36
49044;BME280;34860;48.066;14.124;2022-10-16T01:40:39;96753.56;;;13.57;76.60
49044;BME280;34860;48.066;14.124;2022-10-16T01:43:34;96757.97;;;13.45;76.77
49044;BME280;34860;48.066;14.124;2022-10-16T01:46:26;96759.22;;;13.31;77.24
49044;BME280;34860;48.066;14.124;2022-10-16T01:49:33;96761.63;;;13.20;77.39
49044;BME280;34860;48.066;14.124;2022-10-16T01:52:25;96751.22;;;13.20;77.29
49044;BME280;34860;48.066;14.124;2022-10-16T01:55:18;96755.47;;;13.25;77.39
49044;BME280;34860;48.066;14.124;2022-10-16T01:58:09;96749.28;;;13.30;76.92
49044;BME280;34860;48.066;14.124;2022-10-16T02:00:58;96757.22;;;13.32;76.98
49044;BME280;34860;48.066;14.124;2022-10-16T02:03:51;96754.09;;;13.30;76.77
49044;BME280;34860;48.066;14.124;2022-10-16T02:06:41;96759.00;;;13.25;76.80
49044;BME280;34860;48.066;14.124;2022-10-16T02:09:30;96764.59;;;13.25;76.87
49044;BME280;34860;48.066;14.124;2022-10-16T02:12:25;96764.28;;;13.23;76.89
49044;BME280;34860;48.066;14.124;2022-10-16T02:15:15;96760.38;;;13.21;76.88
49044;BME280;34860;48.066;14.124;2022-10-16T02:18:04;96762.84;;;13.19;76.76
49044;BME280;34860;48.066;14.124;2022-10-16T02:20:58;96764.19;;;13.14;76.74
49044;BME280;34860;48.066;14.124;2022-10-16T02:23:51;96758.44;;;13.08;76.40
49044;BME280;34860;48.066;14.124;2022-10-16T02:26:45;96755.09;;;13.01;76.78
49044;BME280;34860;48.066;14.124;2022-10-16T02:29:40;96756.44;;;12.96;76.72
49044;BME280;34860;48.066;14.124;2022-10-16T02:32:32;96764.94;;;12.93;76.92
49044;BME280;34860;48.066;14.124;2022-10-16T02:35:25;96771.28;;;12.93;76.71
49044;BME280;34860;48.066;14.124;2022-10-16T02:38:17;96773.75;;;12.91;76.78
49044;BME280;34860;48.066;14.124;2022-10-16T02:41:07;96772.19;;;12.90;76.65
49044;BME280;34860;48.066;14.124;2022-10-16T02:43:56;96771.53;;;12.86;76.67
49044;BME280;34860;48.066;14.124;2022-10-16T02:46:44;96765.75;;;12.80;76.60
49044;BME280;34860;48.066;14.124;2022-10-16T02:49:33;96768.31;;;12.75;76.73
49044;BME280;34860;48.066;14.124;2022-10-16T02:52:22;96767.44;;;12.65;77.16
49044;BME280;34860;48.066;14.124;2022-10-16T02:55:12;96770.91;;;12.56;77.40
49044;BME280;34860;48.066;14.124;2022-10-16T02:58:01;96777.59;;;12.46;77.64
49044;BME280;34860;48.066;14.124;2022-10-16T03:00:49;96788.88;;;12.42;77.70
49044;BME280;34860;48.066;14.124;2022-10-16T03:03:38;96791.34;;;12.40;77.80
49044;BME280;34860;48.066;14.124;2022-10-16T03:06:27;96795.44;;;12.48;77.55
49044;BME280;34860;48.066;14.124;2022-10-16T03:09:16;96807.81;;;12.47;77.31
49044;BME280;34860;48.066;14.124;2022-10-16T03:12:06;96815.19;;;12.41;77.48
49044;BME280;34860;48.066;14.124;2022-10-16T03:14:55;96806.81;;;12.41;77.55
49044;BME280;34860;48.066;14.124;2022-10-16T03:17:43;96814.28;;;12.44;77.51
49044;BME280;34860;48.066;14.124;2022-10-16T03:20:32;96815.28;;;12.50;77.32
49044;BME280;34860;48.066;14.124;2022-10-16T03:23:21;96818.63;;;12.58;77.04
49044;BME280;34860;48.066;14.124;2022-10-16T03:26:10;96817.31;;;12.63;77.03
49044;BME280;34860;48.066;14.124;2022-10-16T03:29:00;96821.09;;;12.69;76.79
49044;BME280;34860;48.066;14.124;2022-10-16T03:31:50;96810.25;;;12.71;76.93
49044;BME280;34860;48.066;14.124;2022-10-16T03:34:39;96808.16;;;12.75;76.84
49044;BME280;34860;48.066;14.124;2022-10-16T03:37:28;96818.88;;;12.77;76.68
49044;BME280;34860;48.066;14.124;2022-10-16T03:40:17;96810.81;;;12.79;76.60
49044;BME280;34860;48.066;14.124;2022-10-16T03:43:07;96810.50;;;12.77;76.65
49044;BME280;34860;48.066;14.124;2022-10-16T03:45:57;96812.59;;;12.72;76.48
49044;BME280;34860;48.066;14.124;2022-10-16T03:48:46;96815.97;;;12.67;76.59
49044;BME280;34860;48.066;14.124;2022-10-16T03:51:34;96818.44;;;12.65;76.67
49044;BME280;34860;48.066;14.124;2022-10-16T03:54:23;96813.50;;;12.57;76.91
49044;BME280;34860;48.066;14.124;2022-10-16T03:57:12;96819.22;;;12.53;76.72
49044;BME280;34860;48.066;14.124;2022-10-16T04:00:00;96818.88;;;12.51;76.74
49044;BME280;34860;48.066;14.124;2022-10-16T04:02:59;96827.00;;;12.45;76.68
49044;BME280;34860;48.066;14.124;2022-10-16T04:05:47;96832.59;;;12.45;76.72
49044;BME280;34860;48.066;14.124;2022-10-16T04:08:36;96836.59;;;12.44;76.73
49044;BME280;34860;48.066;14.124;2022-10-16T04:11:26;96842.06;;;12.48;76.62
49044;BME280;34860;48.066;14.124;2022-10-16T04:14:15;96845.97;;;12.50;76.87
49044;BME280;34860;48.066;14.124;2022-10-16T04:17:04;96851.44;;;12.54;76.59
49044;BME280;34860;48.066;14.124;2022-10-16T04:19:54;96850.66;;;12.53;76.61
49044;BME280;34860;48.066;14.124;2022-10-16T04:22:43;96859.91;;;12.50;76.76
49044;BME280;34860;48.066;14.124;2022-10-16T04:25:32;96852.41;;;12.47;77.11
49044;BME280;34860;48.066;14.124;2022-10-16T04:28:21;96853.09;;;12.51;76.84
49044;BME280;34860;48.066;14.124;2022-10-16T04:31:10;96861.34;;;12.55;76.85
49044;BME280;34860;48.066;14.124;2022-10-16T04:33:58;96844.41;;;12.49;77.16
49044;BME280;34860;48.066;14.124;2022-10-16T04:36:49;96847.72;;;12.44;77.26
49044;BME280;34860;48.066;14.124;2022-10-16T04:39:37;96851.97;;;12.49;77.23
49044;BME280;34860;48.066;14.124;2022-10-16T04:42:26;96851.44;;;12.54;76.98
49044;BME280;34860;48.066;14.124;2022-10-16T04:45:15;96837.72;;;12.60;76.79
49044;BME280;34860;48.066;14.124;2022-10-16T04:48:04;96848.97;;;12.56;76.82
49044;BME280;34860;48.066;14.124;2022-10-16T04:50:53;96839.28;;;12.48;77.21
49044;BME280;34860;48.066;14.124;2022-10-16T04:53:43;96838.28;;;12.42;77.47
49044;BME280;34860;48.066;14.124;2022-10-16T04:56:32;96833.25;;;12.37;77.57
49044;BME280;34860;48.066;14.124;2022-10-16T04:59:27;96832.81;;;12.38;77.78
49044;BME280;34860;48.066;14.124;2022-10-16T05:02:16;96836.13;;;12.46;77.53
49044;BME280;34860;48.066;14.124;2022-10-16T05:05:05;96843.53;;;12.52;77.19
49044;BME280;34860;48.066;14.124;2022-10-16T05:07:54;96845.75;;;12.58;76.99
49044;BME280;34860;48.066;14.124;2022-10-16T05:10:45;96845.41;;;12.56;76.95
49044;BME280;34860;48.066;14.124;2022-10-16T05:13:33;96846.41;;;12.49;76.98
49044;BME280;34860;48.066;14.124;2022-10-16T05:16:22;96854.09;;;12.32;77.37
49044;BME280;34860;48.066;14.124;2022-10-16T05:19:11;96857.97;;;12.22;77.59
49044;BME280;34860;48.066;14.124;2022-10-16T05:22:18;96861.88;;;12.11;77.85
49044;BME280;34860;48.066;14.124;2022-10-16T05:25:07;96860.53;;;12.16;77.69
49044;BME280;34860;48.066;14.124;2022-10-16T05:27:57;96861.88;;;12.24;77.43
49044;BME280;34860;48.066;14.124;2022-10-16T05:30:46;96860.13;;;12.30;77.25
49044;BME280;34860;48.066;14.124;2022-10-16T05:33:35;96857.97;;;12.34;77.04
49044;BME280;34860;48.066;14.124;2022-10-16T05:36:24;96858.34;;;12.37;76.88
49044;BME280;34860;48.066;14.124;2022-10-16T05:39:14;96877.94;;;12.33;77.00
49044;BME280;34860;48.066;14.124;2022-10-16T05:42:03;96889.63;;;12.15;77.21
49044;BME280;34860;48.066;14.124;2022-10-16T05:44:54;96884.03;;;12.15;77.36
49044;BME280;34860;48.066;14.124;2022-10-16T05:47:42;96882.03;;;12.15;77.42
49044;BME280;34860;48.066;14.124;2022-10-16T05:50:31;96879.22;;;12.03;77.72
49044;BME280;34860;48.066;14.124;2022-10-16T05:53:20;96883.03;;;12.09;77.65
49044;BME280;34860;48.066;14.124;2022-10-16T05:56:12;96888.69;;;12.05;77.53
49044;BME280;34860;48.066;14.124;2022-10-16T05:59:02;96888.69;;;12.05;77.60
49044;BME280;34860;48.066;14.124;2022-10-16T06:01:53;96887.41;;;11.93;77.67
49044;BME280;34860;48.066;14.124;2022-10-16T06:04:41;96898.56;;;11.93;77.62
49044;BME280;34860;48.066;14.124;2022-10-16T06:07:34;96899.25;;;11.97;77.62
49044;BME280;34860;48.066;14.124;2022-10-16T06:10:23;96906.56;;;11.91;77.69
49044;BME280;34860;48.066;14.124;2022-10-16T06:13:12;96909.00;;;11.89;77.76
49044;BME280;34860;48.066;14.124;2022-10-16T06:16:02;96912.66;;;11.86;77.75
49044;BME280;34860;48.066;14.124;2022-10-16T06:18:53;96908.84;;;11.80;77.85
49044;BME280;34860;48.066;14.124;2022-10-16T06:21:43;96915.88;;;11.85;77.68
49044;BME280;34860;48.066;14.124;2022-10-16T06:24:31;96913.38;;;11.90;77.66
49044;BME280;34860;48.066;14.124;2022-10-16T06:27:20;96914.53;;;12.06;77.39
49044;BME280;34860;48.066;14.124;2022-10-16T06:30:09;96925.66;;;12.22;77.14
49044;BME280;34860;48.066;14.124;2022-10-16T06:32:58;96933.34;;;12.31;76.68
49044;BME280;34860;48.066;14.124;2022-10-16T06:35:48;96948.41;;;12.33;77.03
49044;BME280;34860;48.066;14.124;2022-10-16T06:38:38;96950.53;;;12.42;76.96
49044;BME280;34860;48.066;14.124;2022-10-16T06:41:26;96948.09;;;12.57;76.61
49044;BME280;34860;48.066;14.124;2022-10-16T06:44:17;96950.47;;;12.71;76.29
49044;BME280;34860;48.066;14.124;2022-10-16T06:47:06;96956.53;;;12.83;76.10
49044;BME280;34860;48.066;14.124;2022-10-16T06:49:55;96960.97;;;12.93;76.37
49044;BME280;34860;48.066;14.124;2022-10-16T06:52:45;96959.78;;;13.07;76.04
49044;BME280;34860;48.066;14.124;2022-10-16T06:55:33;96964.09;;;13.08;76.21
49044;BME280;34860;48.066;14.124;2022-10-16T06:58:22;96959.53;;;13.40;75.83
49044;BME280;34860;48.066;14.124;2022-10-16T07:01:12;96961.34;;;13.81;75.06
49044;BME280;34860;48.066;14.124;2022-10-16T07:04:02;96968.28;;;14.12;74.84
49044;BME280;34860;48.066;14.124;2022-10-16T07:06:51;96966.22;;;14.47;74.47
49044;BME280;34860;48.066;14.124;2022-10-16T07:09:41;96970.19;;;14.59;74.45
49044;BME280;34860;48.066;14.124;2022-10-16T07:12:30;96970.63;;;14.58;74.90
49044;BME280;34860;48.066;14.124;2022-10-16T07:15:19;96969.84;;;14.57;75.06
49044;BME280;34860;48.066;14.124;2022-10-16T07:18:08;96965.03;;;14.58;75.13
49044;BME280;34860;48.066;14.124;2022-10-16T07:21:03;96974.66;;;14.57;75.22
49044;BME280;34860;48.066;14.124;2022-10-16T07:23:53;96971.78;;;14.60;75.20
49044;BME280;34860;48.066;14.124;2022-10-16T07:26:45;96978.00;;;14.64;75.01
49044;BME280;34860;48.066;14.124;2022-10-16T07:29:34;96983.59;;;14.64;75.16
49044;BME280;34860;48.066;14.124;2022-10-16T07:32:23;96984.41;;;14.65;75.25
49044;BME280;34860;48.066;14.124;2022-10-16T07:35:13;96985.63;;;14.64;75.43
49044;BME280;34860;48.066;14.124;2022-10-16T07:38:02;96991.88;;;14.68;75.40
49044;BME280;34860;48.066;14.124;2022-10-16T07:40:56;96983.03;;;14.69;75.36
49044;BME280;34860;48.066;14.124;2022-10-16T07:43:48;96980.41;;;14.75;75.33
49044;BME280;34860;48.066;14.124;2022-10-16T07:46:37;96980.47;;;14.84;75.11
49044;BME280;34860;48.066;14.124;2022-10-16T07:49:26;96985.66;;;14.95;75.02
49044;BME280;34860;48.066;14.124;2022-10-16T07:52:14;96979.75;;;15.02;74.95
49044;BME280;34860;48.066;14.124;2022-10-16T07:55:04;96978.13;;;15.23;74.67
49044;BME280;34860;48.066;14.124;2022-10-16T07:57:53;96978.81;;;15.37;74.58
49044;BME280;34860;48.066;14.124;2022-10-16T08:00:44;96981.19;;;15.48;74.34
49044;BME280;34860;48.066;14.124;2022-10-16T08:03:33;96977.16;;;15.58;74.25
49044;BME280;34860;48.066;14.124;2022-10-16T08:06:22;96982.47;;;15.56;74.21
49044;BME280;34860;48.066;14.124;2022-10-16T08:09:11;96977.91;;;15.49;74.51
49044;BME280;34860;48.066;14.124;2022-10-16T08:11:59;96981.97;;;15.48;74.83
49044;BME280;34860;48.066;14.124;2022-10-16T08:14:49;96982.16;;;15.63;74.76
49044;BME280;34860;48.066;14.124;2022-10-16T08:17:39;96981.72;;;15.74;74.42
49044;BME280;34860;48.066;14.124;2022-10-16T08:20:29;96988.31;;;15.80;74.52
49044;BME280;34860;48.066;14.124;2022-10-16T08:23:18;96991.81;;;15.71;74.98
49044;BME280;34860;48.066;14.124;2022-10-16T08:26:07;96985.03;;;15.82;74.90
49044;BME280;34860;48.066;14.124;2022-10-16T08:28:57;96987.84;;;15.91;74.94
49044;BME280;34860;48.066;14.124;2022-10-16T08:31:46;96988.94;;;16.03;74.90
49044;BME280;34860;48.066;14.124;2022-10-16T08:34:36;96985.38;;;16.21;74.53
49044;BME280;34860;48.066;14.124;2022-10-16T08:37:29;96991.91;;;16.36;74.30
49044;BME280;34860;48.066;14.124;2022-10-16T08:40:19;96987.25;;;16.51;74.18
49044;BME280;34860;48.066;14.124;2022-10-16T08:43:23;96997.19;;;16.62;74.02
49044;BME280;34860;48.066;14.124;2022-10-16T08:46:21;97006.06;;;16.69;74.23
49044;BME280;34860;48.066;14.124;2022-10-16T08:49:15;97008.72;;;16.73;74.24
49044;BME280;34860;48.066;14.124;2022-10-16T08:52:10;97019.81;;;16.67;74.70
49044;BME280;34860;48.066;14.124;2022-10-16T08:55:01;97024.47;;;16.70;74.75
49044;BME280;34860;48.066;14.124;2022-10-16T08:57:50;97033.97;;;16.64;74.88
49044;BME280;34860;48.066;14.124;2022-10-16T09:00:39;97028.22;;;16.49;75.31
49044;BME280;34860;48.066;14.124;2022-10-16T09:03:38;97031.03;;;16.49;75.47
49044;BME280;34860;48.066;14.124;2022-10-16T09:06:42;97014.66;;;16.38;75.54
49044;BME280;34860;48.066;14.124;2022-10-16T09:09:51;97015.31;;;16.51;75.55
49044;BME280;34860;48.066;14.124;2022-10-16T09:12:48;97004.97;;;16.67;74.97
49044;BME280;34860;48.066;14.124;2022-10-16T09:15:47;97004.84;;;16.70;75.20
49044;BME280;34860;48.066;14.124;2022-10-16T09:18:41;97011.06;;;16.75;75.01
49044;BME280;34860;48.066;14.124;2022-10-16T09:21:34;97017.44;;;16.75;75.13
49044;BME280;34860;48.066;14.124;2022-10-16T09:24:25;97011.38;;;16.67;75.42
49044;BME280;34860;48.066;14.124;2022-10-16T09:27:16;97021.97;;;16.73;75.24
49044;BME280;34860;48.066;14.124;2022-10-16T09:30:12;97031.00;;;16.77;75.25
49044;BME280;34860;48.066;14.124;2022-10-16T09:33:01;97028.66;;;16.75;75.34
49044;BME280;34860;48.066;14.124;2022-10-16T09:35:53;97038.66;;;16.67;75.62
49044;BME280;34860;48.066;14.124;2022-10-16T09:38:42;97042.41;;;16.64;75.57
49044;BME280;34860;48.066;14.124;2022-10-16T09:41:34;97043.97;;;16.65;75.44
49044;BME280;34860;48.066;14.124;2022-10-16T09:44:28;97045.84;;;16.68;75.33
49044;BME280;34860;48.066;14.124;2022-10-16T09:47:20;97040.22;;;16.68;75.33
49044;BME280;34860;48.066;14.124;2022-10-16T09:50:21;97038.03;;;16.63;75.39
49044;BME280;34860;48.066;14.124;2022-10-16T09:53:13;97040.38;;;16.64;75.40
49044;BME280;34860;48.066;14.124;2022-10-16T09:56:02;97050.34;;;16.75;75.17
49044;BME280;34860;48.066;14.124;2022-10-16T09:58:56;97047.53;;;16.84;75.26
49044;BME280;34860;48.066;14.124;2022-10-16T10:01:47;97046.63;;;16.87;75.25
49044;BME280;34860;48.066;14.124;2022-10-16T10:04:40;97047.56;;;16.93;74.92
49044;BME280;34860;48.066;14.124;2022-10-16T10:07:31;97046.91;;;16.98;75.00
49044;BME280;34860;48.066;14.124;2022-10-16T10:10:24;97049.25;;;17.00;75.08
49044;BME280;34860;48.066;14.124;2022-10-16T10:13:18;97046.75;;;17.02;74.89
49044;BME280;34860;48.066;14.124;2022-10-16T10:16:07;97056.56;;;17.06;74.95
49044;BME280;34860;48.066;14.124;2022-10-16T10:19:00;97059.19;;;17.10;74.87
49044;BME280;34860;48.066;14.124;2022-10-16T10:21:50;97057.78;;;17.15;74.87
49044;BME280;34860;48.066;14.124;2022-10-16T10:24:39;97053.25;;;17.17;74.81
49044;BME280;34860;48.066;14.124;2022-10-16T10:27:34;97049.69;;;17.17;75.00
49044;BME280;34860;48.066;14.124;2022-10-16T10:30:30;97040.44;;;17.25;74.87
49044;BME280;34860;48.066;14.124;2022-10-16T10:33:30;97041.06;;;17.30;74.78
49044;BME280;34860;48.066;14.124;2022-10-16T10:36:29;97037.13;;;17.36;74.77
49044;BME280;34860;48.066;14.124;2022-10-16T10:39:23;97032.25;;;17.46;74.68
49044;BME280;34860;48.066;14.124;2022-10-16T10:42:21;97031.28;;;17.58;74.32
49044;BME280;34860;48.066;14.124;2022-10-16T10:45:18;97033.72;;;17.66;74.13
49044;BME280;34860;48.066;14.124;2022-10-16T10:48:26;97031.97;;;17.77;74.04
49044;BME280;34860;48.066;14.124;2022-10-16T10:51:21;97034.69;;;17.87;74.01
49044;BME280;34860;48.066;14.124;2022-10-16T10:54:22;97031.09;;;17.95;73.95
49044;BME280;34860;48.066;14.124;2022-10-16T10:57:21;97034.50;;;18.00;73.88
49044;BME280;34860;48.066;14.124;2022-10-16T11:00:19;97030.56;;;18.06;73.78
49044;BME280;34860;48.066;14.124;2022-10-16T11:03:16;97025.25;;;18.08;74.00
49044;BME280;34860;48.066;14.124;2022-10-16T11:06:12;97028.06;;;18.08;73.96
49044;BME280;34860;48.066;14.124;2022-10-16T11:09:10;97035.41;;;18.06;74.19
49044;BME280;34860;48.066;14.124;2022-10-16T11:12:02;97034.50;;;18.00;74.47
49044;BME280;34860;48.066;14.124;2022-10-16T11:14:56;97032.81;;;17.93;74.64
49044;BME280;34860;48.066;14.124;2022-10-16T11:17:50;97041.25;;;17.93;74.66
49044;BME280;34860;48.066;14.124;2022-10-16T11:20:44;97035.06;;;17.89;74.72
49044;BME280;34860;48.066;14.124;2022-10-16T11:23:40;97039.88;;;17.88;74.94
49044;BME280;34860;48.066;14.124;2022-10-16T11:26:34;97034.09;;;17.92;74.84
49044;BME280;34860;48.066;14.124;2022-10-16T11:29:29;97034.50;;;18.00;74.76
49044;BME280;34860;48.066;14.124;2022-10-16T11:32:22;97034.16;;;18.07;74.60
49044;BME280;34860;48.066;14.124;2022-10-16T11:35:17;97028.47;;;18.16;74.37
49044;BME280;34860;48.066;14.124;2022-10-16T11:38:09;97034.91;;;18.31;74.18
49044;BME280;34860;48.066;14.124;2022-10-16T11:41:02;97039.91;;;18.51;73.75
49044;BME280;34860;48.066;14.124;2022-10-16T11:44:05;97028.88;;;18.78;73.08
49044;BME280;34860;48.066;14.124;2022-10-16T11:47:03;97033.03;;;18.92;72.86
49044;BME280;34860;48.066;14.124;2022-10-16T11:50:19;97030.41;;;19.03;72.88
49044;BME280;34860;48.066;14.124;2022-10-16T11:53:16;97025.25;;;19.01;73.11
49044;BME280;34860;48.066;14.124;2022-10-16T11:56:12;97029.03;;;18.98;73.17
49044;BME280;34860;48.066;14.124;2022-10-16T11:59:05;97026.63;;;18.91;73.55
49044;BME280;34860;48.066;14.124;2022-10-16T12:02:07;97024.16;;;18.84;73.93
49044;BME280;34860;48.066;14.124;2022-10-16T12:05:11;97024.72;;;18.73;74.25
49044;BME280;34860;48.066;14.124;2022-10-16T12:08:10;97021.31;;;18.69;74.33
49044;BME280;34860;48.066;14.124;2022-10-16T12:11:07;97020.66;;;18.74;74.19
49044;BME280;34860;48.066;14.124;2022-10-16T12:14:06;97023.38;;;18.68;74.38
49044;BME280;34860;48.066;14.124;2022-10-16T12:16:57;97029.47;;;18.67;74.48
49044;BME280;34860;48.066;14.124;2022-10-16T12:19:59;97022.28;;;18.66;74.35
49044;BME280;34860;48.066;14.124;2022-10-16T12:22:49;97025.09;;;18.66;74.32
49044;BME280;34860;48.066;14.124;2022-10-16T12:25:39;97012.88;;;18.69;74.39
49044;BME280;34860;48.066;14.124;2022-10-16T12:28:33;97023.78;;;19.06;73.94
49044;BME280;34860;48.066;14.124;2022-10-16T12:31:23;97015.63;;;19.88;71.80
49044;BME280;34860;48.066;14.124;2022-10-16T12:34:21;97016.28;;;19.98;71.49
49044;BME280;34860;48.066;14.124;2022-10-16T12:37:14;97011.28;;;19.72;72.60
49044;BME280;34860;48.066;14.124;2022-10-16T12:40:13;97015.69;;;19.58;72.56
49044;BME280;34860;48.066;14.124;2022-10-16T12:43:12;97021.84;;;19.42;73.13
49044;BME280;34860;48.066;14.124;2022-10-16T12:46:03;97019.13;;;19.33;73.51
49044;BME280;34860;48.066;14.124;2022-10-16T12:48:52;97019.03;;;19.27;73.72
49044;BME280;34860;48.066;14.124;2022-10-16T12:51:51;97022.53;;;19.22;73.82
49044;BME280;34860;48.066;14.124;2022-10-16T12:54:42;97018.06;;;19.15;74.04
49044;BME280;34860;48.066;14.124;2022-10-16T12:57:40;97021.56;;;19.10;74.12
49044;BME280;34860;48.066;14.124;2022-10-16T13:00:39;97016.72;;;19.11;74.14
49044;BME280;34860;48.066;14.124;2022-10-16T13:03:48;97023.50;;;19.19;73.74
49044;BME280;34860;48.066;14.124;2022-10-16T13:06:46;97017.59;;;19.17;73.79
49044;BME280;34860;48.066;14.124;2022-10-16T13:09:48;97009.81;;;19.12;73.93
49044;BME280;34860;48.066;14.124;2022-10-16T13:12:56;97020.69;;;19.04;74.17
49044;BME280;34860;48.066;14.124;2022-10-16T13:15:58;97023.22;;;19.02;74.15
49044;BME280;34860;48.066;14.124;2022-10-16T13:18:58;97027.59;;;19.03;74.34
49044;BME280;34860;48.066;14.124;2022-10-16T13:21:54;97035.25;;;19.02;74.16
49044;BME280;34860;48.066;14.124;2022-10-16T13:25:01;97040.97;;;19.08;74.04
49044;BME280;34860;48.066;14.124;2022-10-16T13:27:55;97037.13;;;19.05;74.07
49044;BME280;34860;48.066;14.124;2022-10-16T13:30:51;97034.09;;;19.09;74.02
49044;BME280;34860;48.066;14.124;2022-10-16T13:33:42;97031.06;;;19.13;74.04
49044;BME280;34860;48.066;14.124;2022-10-16T13:36:42;97042.34;;;19.13;73.96
49044;BME280;34860;48.066;14.124;2022-10-16T13:39:31;97033.13;;;19.12;74.01
49044;BME280;34860;48.066;14.124;2022-10-16T13:42:24;97033.91;;;19.13;74.04
49044;BME280;34860;48.066;14.124;2022-10-16T13:45:18;97037.78;;;19.15;74.08
49044;BME280;34860;48.066;14.124;2022-10-16T13:48:10;97027.88;;;19.20;73.69
49044;BME280;34860;48.066;14.124;2022-10-16T13:51:03;97034.88;;;19.24;73.64
49044;BME280;34860;48.066;14.124;2022-10-16T13:53:52;97048.47;;;19.26;73.66
49044;BME280;34860;48.066;14.124;2022-10-16T13:56:42;97044.97;;;19.31;73.74
49044;BME280;34860;48.066;14.124;2022-10-16T13:59:35;97046.53;;;19.32;73.64
49044;BME280;34860;48.066;14.124;2022-10-16T14:02:27;97056.84;;;19.35;73.70
49044;BME280;34860;48.066;14.124;2022-10-16T14:05:19;97051.38;;;19.32;73.79
49044;BME280;34860;48.066;14.124;2022-10-16T14:08:10;97054.88;;;19.27;73.79
49044;BME280;34860;48.066;14.124;2022-10-16T14:11:01;97061.00;;;19.25;73.84
49044;BME280;34860;48.066;14.124;2022-10-16T14:13:50;97057.78;;;19.17;74.21
49044;BME280;34860;48.066;14.124;2022-10-16T14:16:42;97055.94;;;19.14;74.29
49044;BME280;34860;48.066;14.124;2022-10-16T14:19:32;97056.25;;;19.16;74.17
49044;BME280;34860;48.066;14.124;2022-10-16T14:22:32;97060.63;;;19.17;74.28
49044;BME280;34860;48.066;14.124;2022-10-16T14:25:24;97059.56;;;19.15;74.13
49044;BME280;34860;48.066;14.124;2022-10-16T14:28:16;97065.88;;;19.24;73.92
49044;BME280;34860;48.066;14.124;2022-10-16T14:31:24;97065.66;;;19.28;73.92
49044;BME280;34860;48.066;14.124;2022-10-16T14:34:26;97057.22;;;19.28;73.98
49044;BME280;34860;48.066;14.124;2022-10-16T14:37:23;97059.28;;;19.28;73.89
49044;BME280;34860;48.066;14.124;2022-10-16T14:40:14;97063.34;;;19.27;73.93
49044;BME280;34860;48.066;14.124;2022-10-16T14:43:05;97060.72;;;19.23;74.17
49044;BME280;34860;48.066;14.124;2022-10-16T14:45:55;97064.50;;;19.20;74.15
49044;BME280;34860;48.066;14.124;2022-10-16T14:48:47;97057.31;;;19.19;74.20
49044;BME280;34860;48.066;14.124;2022-10-16T14:51:41;97061.22;;;19.21;74.10
49044;BME280;34860;48.066;14.124;2022-10-16T14:54:31;97067.91;;;19.24;73.98
49044;BME280;34860;48.066;14.124;2022-10-16T14:57:24;97057.91;;;19.23;74.10
49044;BME280;34860;48.066;14.124;2022-10-16T15:00:18;97062.75;;;19.22;74.14